sensor_id;sensor_type;location;lat;lon;timestamp;temperature;humidity
21495;DHT22;10909;53.590;10.054;2022-09-29T00:00:11;12.70;70.50
21495;DHT22;10909;53.590;10.054;2022-09-29T00:02:38;12.60;70.40
21495;DHT22;10909;53.590;10.054;2022-09-29T00:05:04;12.60;70.40
21495;DHT22;10909;53.590;10.054;2022-09-29T00:07:30;12.60;70.40
21495;DHT22;10909;53.590;10.054;2022-09-29T00:09:57;12.60;70.40
21495;DHT22;10909;53.590;10.054;2022-09-29T00:12:22;12.50;70.40
21495;DHT22;10909;53.590;10.054;2022-09-29T00:14:48;12.50;70.40
21495;DHT22;10909;53.590;10.054;2022-09-29T00:17:14;12.50;70.40
21495;DHT22;10909;53.590;10.054;2022-09-29T00:19:40;12.50;70.40
21495;DHT22;10909;53.590;10.054;2022-09-29T00:22:05;12.40;70.50
21495;DHT22;10909;53.590;10.054;2022-09-29T00:24:31;12.40;70.50
21495;DHT22;10909;53.590;10.054;2022-09-29T00:26:56;12.40;70.60
21495;DHT22;10909;53.590;10.054;2022-09-29T00:29:22;12.30;70.60
21495;DHT22;10909;53.590;10.054;2022-09-29T00:31:48;12.30;70.50
21495;DHT22;10909;53.590;10.054;2022-09-29T00:34:13;12.30;70.50
21495;DHT22;10909;53.590;10.054;2022-09-29T00:36:39;12.30;70.70
21495;DHT22;10909;53.590;10.054;2022-09-29T00:39:05;12.20;70.60
21495;DHT22;10909;53.590;10.054;2022-09-29T00:41:33;12.20;70.70
21495;DHT22;10909;53.590;10.054;2022-09-29T00:49:00;12.10;70.80
21495;DHT22;10909;53.590;10.054;2022-09-29T00:51:28;12.10;70.80
21495;DHT22;10909;53.590;10.054;2022-09-29T00:53:55;12.00;70.80
21495;DHT22;10909;53.590;10.054;2022-09-29T00:56:21;12.00;70.90
21495;DHT22;10909;53.590;10.054;2022-09-29T00:59:00;12.00;71.00
21495;DHT22;10909;53.590;10.054;2022-09-29T01:01:29;11.90;71.00
21495;DHT22;10909;53.590;10.054;2022-09-29T01:04:04;11.90;71.90
21495;DHT22;10909;53.590;10.054;2022-09-29T01:06:42;11.90;71.10
21495;DHT22;10909;53.590;10.054;2022-09-29T01:09:20;11.80;71.10
21495;DHT22;10909;53.590;10.054;2022-09-29T01:11:48;11.80;71.30
21495;DHT22;10909;53.590;10.054;2022-09-29T01:14:14;11.80;71.30
21495;DHT22;10909;53.590;10.054;2022-09-29T01:16:41;11.70;71.30
21495;DHT22;10909;53.590;10.054;2022-09-29T01:19:12;11.70;71.30
21495;DHT22;10909;53.590;10.054;2022-09-29T01:22:07;11.70;71.40
21495;DHT22;10909;53.590;10.054;2022-09-29T01:33:23;11.60;71.80
21495;DHT22;10909;53.590;10.054;2022-09-29T01:36:04;11.50;71.70
21495;DHT22;10909;53.590;10.054;2022-09-29T01:44:00;11.50;71.80
21495;DHT22;10909;53.590;10.054;2022-09-29T01:49:29;11.40;71.90
21495;DHT22;10909;53.590;10.054;2022-09-29T01:52:02;11.40;71.90
21495;DHT22;10909;53.590;10.054;2022-09-29T01:54:50;11.40;72.00
21495;DHT22;10909;53.590;10.054;2022-09-29T01:57:31;11.40;72.00
21495;DHT22;10909;53.590;10.054;2022-09-29T02:00:05;11.30;71.90
21495;DHT22;10909;53.590;10.054;2022-09-29T02:02:52;11.30;72.00
21495;DHT22;10909;53.590;10.054;2022-09-29T02:05:31;11.30;72.00
21495;DHT22;10909;53.590;10.054;2022-09-29T02:08:09;11.40;72.10
21495;DHT22;10909;53.590;10.054;2022-09-29T02:11:02;11.30;72.00
21495;DHT22;10909;53.590;10.054;2022-09-29T02:13:31;11.20;72.00
21495;DHT22;10909;53.590;10.054;2022-09-29T02:15:59;11.20;71.90
21495;DHT22;10909;53.590;10.054;2022-09-29T02:18:33;11.20;72.00
21495;DHT22;10909;53.590;10.054;2022-09-29T02:21:02;11.20;72.00
21495;DHT22;10909;53.590;10.054;2022-09-29T02:23:28;11.20;72.00
21495;DHT22;10909;53.590;10.054;2022-09-29T02:25:54;11.10;72.00
21495;DHT22;10909;53.590;10.054;2022-09-29T02:28:22;11.10;72.10
21495;DHT22;10909;53.590;10.054;2022-09-29T02:30:49;11.10;72.20
21495;DHT22;10909;53.590;10.054;2022-09-29T02:33:20;11.10;72.20
21495;DHT22;10909;53.590;10.054;2022-09-29T02:38:53;11.00;72.30
21495;DHT22;10909;53.590;10.054;2022-09-29T02:55:36;10.90;72.50
21495;DHT22;10909;53.590;10.054;2022-09-29T03:00:35;10.90;72.60
21495;DHT22;10909;53.590;10.054;2022-09-29T03:03:03;10.90;72.60
21495;DHT22;10909;53.590;10.054;2022-09-29T03:05:29;10.80;72.60
21495;DHT22;10909;53.590;10.054;2022-09-29T03:07:55;10.80;72.70
21495;DHT22;10909;53.590;10.054;2022-09-29T03:10:21;10.80;72.70
21495;DHT22;10909;53.590;10.054;2022-09-29T03:12:46;10.80;72.80
21495;DHT22;10909;53.590;10.054;2022-09-29T03:15:13;10.80;72.80
21495;DHT22;10909;53.590;10.054;2022-09-29T03:17:38;10.80;72.80
21495;DHT22;10909;53.590;10.054;2022-09-29T03:20:05;10.80;72.80
21495;DHT22;10909;53.590;10.054;2022-09-29T03:22:31;10.80;73.70
21495;DHT22;10909;53.590;10.054;2022-09-29T03:24:56;10.80;72.90
21495;DHT22;10909;53.590;10.054;2022-09-29T03:27:23;10.80;73.00
21495;DHT22;10909;53.590;10.054;2022-09-29T03:29:48;10.70;73.00
21495;DHT22;10909;53.590;10.054;2022-09-29T03:32:15;10.80;73.10
21495;DHT22;10909;53.590;10.054;2022-09-29T03:34:40;10.70;73.00
21495;DHT22;10909;53.590;10.054;2022-09-29T03:37:06;10.70;73.10
21495;DHT22;10909;53.590;10.054;2022-09-29T03:39:32;10.80;73.20
21495;DHT22;10909;53.590;10.054;2022-09-29T03:41:58;10.70;73.20
21495;DHT22;10909;53.590;10.054;2022-09-29T03:44:23;10.70;73.20
21495;DHT22;10909;53.590;10.054;2022-09-29T03:46:49;10.70;73.20
21495;DHT22;10909;53.590;10.054;2022-09-29T03:49:15;10.70;73.30
21495;DHT22;10909;53.590;10.054;2022-09-29T03:51:41;10.70;73.20
21495;DHT22;10909;53.590;10.054;2022-09-29T03:54:07;10.60;73.10
21495;DHT22;10909;53.590;10.054;2022-09-29T03:56:33;10.60;73.20
21495;DHT22;10909;53.590;10.054;2022-09-29T03:58:59;10.60;73.30
21495;DHT22;10909;53.590;10.054;2022-09-29T04:01:24;10.60;73.30
21495;DHT22;10909;53.590;10.054;2022-09-29T04:03:50;10.60;73.40
21495;DHT22;10909;53.590;10.054;2022-09-29T04:06:16;10.50;73.30
21495;DHT22;10909;53.590;10.054;2022-09-29T04:08:41;10.50;73.30
21495;DHT22;10909;53.590;10.054;2022-09-29T04:11:07;10.50;73.50
21495;DHT22;10909;53.590;10.054;2022-09-29T04:13:33;10.50;73.50
21495;DHT22;10909;53.590;10.054;2022-09-29T04:16:02;10.50;73.60
21495;DHT22;10909;53.590;10.054;2022-09-29T04:18:28;10.50;73.60
21495;DHT22;10909;53.590;10.054;2022-09-29T04:20:54;10.50;73.70
21495;DHT22;10909;53.590;10.054;2022-09-29T04:23:26;10.40;73.80
21495;DHT22;10909;53.590;10.054;2022-09-29T04:25:52;10.40;73.90
21495;DHT22;10909;53.590;10.054;2022-09-29T04:28:17;10.40;73.90
21495;DHT22;10909;53.590;10.054;2022-09-29T04:30:43;10.40;74.00
21495;DHT22;10909;53.590;10.054;2022-09-29T04:33:09;10.40;74.00
21495;DHT22;10909;53.590;10.054;2022-09-29T04:35:35;10.40;74.10
21495;DHT22;10909;53.590;10.054;2022-09-29T04:38:01;10.40;74.10
21495;DHT22;10909;53.590;10.054;2022-09-29T04:40:27;10.40;74.20
21495;DHT22;10909;53.590;10.054;2022-09-29T04:42:53;10.40;74.20
21495;DHT22;10909;53.590;10.054;2022-09-29T04:45:18;10.50;74.40
21495;DHT22;10909;53.590;10.054;2022-09-29T04:47:44;10.40;74.40
21495;DHT22;10909;53.590;10.054;2022-09-29T04:50:09;10.50;74.50
21495;DHT22;10909;53.590;10.054;2022-09-29T04:52:35;10.50;74.70
21495;DHT22;10909;53.590;10.054;2022-09-29T04:55:02;10.50;74.70
21495;DHT22;10909;53.590;10.054;2022-09-29T04:57:28;10.50;74.70
21495;DHT22;10909;53.590;10.054;2022-09-29T04:59:54;10.40;74.60
21495;DHT22;10909;53.590;10.054;2022-09-29T05:02:20;10.50;74.70
21495;DHT22;10909;53.590;10.054;2022-09-29T05:04:46;10.50;74.80
21495;DHT22;10909;53.590;10.054;2022-09-29T05:07:13;10.50;74.80
21495;DHT22;10909;53.590;10.054;2022-09-29T05:09:39;10.50;74.80
21495;DHT22;10909;53.590;10.054;2022-09-29T05:12:05;10.50;74.80
21495;DHT22;10909;53.590;10.054;2022-09-29T05:14:30;10.50;74.90
21495;DHT22;10909;53.590;10.054;2022-09-29T05:16:56;10.50;74.90
21495;DHT22;10909;53.590;10.054;2022-09-29T05:19:22;10.50;74.90
21495;DHT22;10909;53.590;10.054;2022-09-29T05:21:48;10.50;74.90
21495;DHT22;10909;53.590;10.054;2022-09-29T05:24:14;10.60;75.00
21495;DHT22;10909;53.590;10.054;2022-09-29T05:26:39;10.60;74.90
21495;DHT22;10909;53.590;10.054;2022-09-29T05:29:05;10.60;74.90
21495;DHT22;10909;53.590;10.054;2022-09-29T05:31:31;10.50;74.90
21495;DHT22;10909;53.590;10.054;2022-09-29T05:33:56;10.50;75.70
21495;DHT22;10909;53.590;10.054;2022-09-29T05:36:22;10.50;75.00
21495;DHT22;10909;53.590;10.054;2022-09-29T05:38:48;10.50;75.10
21495;DHT22;10909;53.590;10.054;2022-09-29T05:41:15;10.50;75.10
21495;DHT22;10909;53.590;10.054;2022-09-29T05:43:47;10.50;75.20
21495;DHT22;10909;53.590;10.054;2022-09-29T05:46:12;10.60;75.30
21495;DHT22;10909;53.590;10.054;2022-09-29T05:48:39;10.60;75.40
21495;DHT22;10909;53.590;10.054;2022-09-29T05:51:08;10.60;75.50
21495;DHT22;10909;53.590;10.054;2022-09-29T05:53:34;10.60;75.60
21495;DHT22;10909;53.590;10.054;2022-09-29T05:56:04;10.60;75.60
21495;DHT22;10909;53.590;10.054;2022-09-29T05:58:31;10.70;75.80
21495;DHT22;10909;53.590;10.054;2022-09-29T06:00:57;10.70;75.80
21495;DHT22;10909;53.590;10.054;2022-09-29T06:03:22;10.70;75.90
21495;DHT22;10909;53.590;10.054;2022-09-29T06:05:48;10.70;76.00
21495;DHT22;10909;53.590;10.054;2022-09-29T06:08:14;10.90;76.20
21495;DHT22;10909;53.590;10.054;2022-09-29T06:10:40;10.80;76.20
21495;DHT22;10909;53.590;10.054;2022-09-29T06:13:05;10.80;76.20
21495;DHT22;10909;53.590;10.054;2022-09-29T06:15:31;10.90;76.30
21495;DHT22;10909;53.590;10.054;2022-09-29T06:17:58;10.90;76.40
21495;DHT22;10909;53.590;10.054;2022-09-29T06:20:24;10.90;76.40
21495;DHT22;10909;53.590;10.054;2022-09-29T06:22:53;11.00;76.40
21495;DHT22;10909;53.590;10.054;2022-09-29T06:25:19;11.00;76.60
21495;DHT22;10909;53.590;10.054;2022-09-29T06:27:44;11.00;76.80
21495;DHT22;10909;53.590;10.054;2022-09-29T06:30:11;11.10;76.90
21495;DHT22;10909;53.590;10.054;2022-09-29T06:32:37;11.10;77.00
21495;DHT22;10909;53.590;10.054;2022-09-29T06:35:03;11.20;77.00
21495;DHT22;10909;53.590;10.054;2022-09-29T06:37:48;11.20;77.20
21495;DHT22;10909;53.590;10.054;2022-09-29T06:40:15;11.30;77.20
21495;DHT22;10909;53.590;10.054;2022-09-29T06:42:41;11.30;77.20
21495;DHT22;10909;53.590;10.054;2022-09-29T06:45:07;11.40;77.30
21495;DHT22;10909;53.590;10.054;2022-09-29T06:47:34;11.40;77.30
21495;DHT22;10909;53.590;10.054;2022-09-29T06:49:59;11.50;77.50
21495;DHT22;10909;53.590;10.054;2022-09-29T06:52:26;11.50;77.40
21495;DHT22;10909;53.590;10.054;2022-09-29T06:54:52;11.60;77.40
21495;DHT22;10909;53.590;10.054;2022-09-29T06:57:17;11.60;77.50
21495;DHT22;10909;53.590;10.054;2022-09-29T06:59:43;11.70;77.60
21495;DHT22;10909;53.590;10.054;2022-09-29T07:02:10;11.70;77.70
21495;DHT22;10909;53.590;10.054;2022-09-29T07:04:36;11.80;77.80
21495;DHT22;10909;53.590;10.054;2022-09-29T07:07:02;11.80;77.80
21495;DHT22;10909;53.590;10.054;2022-09-29T07:09:28;11.90;77.90
21495;DHT22;10909;53.590;10.054;2022-09-29T07:11:53;11.90;77.90
21495;DHT22;10909;53.590;10.054;2022-09-29T07:14:20;12.00;78.20
21495;DHT22;10909;53.590;10.054;2022-09-29T07:16:50;12.10;79.10
21495;DHT22;10909;53.590;10.054;2022-09-29T07:19:17;12.10;78.30
21495;DHT22;10909;53.590;10.054;2022-09-29T07:21:44;12.20;78.50
21495;DHT22;10909;53.590;10.054;2022-09-29T07:24:10;12.30;78.60
21495;DHT22;10909;53.590;10.054;2022-09-29T07:26:36;12.40;78.60
21495;DHT22;10909;53.590;10.054;2022-09-29T07:29:02;12.40;78.60
21495;DHT22;10909;53.590;10.054;2022-09-29T07:31:28;12.50;78.60
21495;DHT22;10909;53.590;10.054;2022-09-29T07:33:55;12.60;78.60
21495;DHT22;10909;53.590;10.054;2022-09-29T07:36:21;12.70;78.60
21495;DHT22;10909;53.590;10.054;2022-09-29T07:38:48;12.70;78.40
21495;DHT22;10909;53.590;10.054;2022-09-29T07:41:14;12.80;78.20
21495;DHT22;10909;53.590;10.054;2022-09-29T07:43:40;12.80;77.90
21495;DHT22;10909;53.590;10.054;2022-09-29T07:46:06;12.90;77.70
21495;DHT22;10909;53.590;10.054;2022-09-29T07:48:32;13.00;78.40
21495;DHT22;10909;53.590;10.054;2022-09-29T07:51:02;13.00;77.60
21495;DHT22;10909;53.590;10.054;2022-09-29T07:53:29;13.00;77.40
21495;DHT22;10909;53.590;10.054;2022-09-29T07:55:55;13.00;77.30
21495;DHT22;10909;53.590;10.054;2022-09-29T07:58:27;13.10;77.30
21495;DHT22;10909;53.590;10.054;2022-09-29T08:00:54;13.10;77.20
21495;DHT22;10909;53.590;10.054;2022-09-29T08:03:19;13.10;77.20
21495;DHT22;10909;53.590;10.054;2022-09-29T08:05:45;13.20;77.20
21495;DHT22;10909;53.590;10.054;2022-09-29T08:08:11;13.20;77.30
21495;DHT22;10909;53.590;10.054;2022-09-29T08:10:36;13.20;77.30
21495;DHT22;10909;53.590;10.054;2022-09-29T08:13:02;13.30;77.50
21495;DHT22;10909;53.590;10.054;2022-09-29T08:15:28;13.40;77.60
21495;DHT22;10909;53.590;10.054;2022-09-29T08:17:54;13.40;77.50
21495;DHT22;10909;53.590;10.054;2022-09-29T08:20:26;13.50;77.20
21495;DHT22;10909;53.590;10.054;2022-09-29T08:22:52;13.50;77.10
21495;DHT22;10909;53.590;10.054;2022-09-29T08:25:21;13.60;77.00
21495;DHT22;10909;53.590;10.054;2022-09-29T08:27:48;13.60;76.80
21495;DHT22;10909;53.590;10.054;2022-09-29T08:30:14;13.60;77.60
21495;DHT22;10909;53.590;10.054;2022-09-29T08:32:40;13.70;76.70
21495;DHT22;10909;53.590;10.054;2022-09-29T08:35:07;13.70;76.70
21495;DHT22;10909;53.590;10.054;2022-09-29T08:37:33;13.70;76.80
21495;DHT22;10909;53.590;10.054;2022-09-29T08:39:58;13.70;76.60
21495;DHT22;10909;53.590;10.054;2022-09-29T08:45:02;13.90;76.90
21495;DHT22;10909;53.590;10.054;2022-09-29T08:47:31;13.90;76.80
21495;DHT22;10909;53.590;10.054;2022-09-29T08:50:13;13.90;76.80
21495;DHT22;10909;53.590;10.054;2022-09-29T08:52:43;14.00;76.80
21495;DHT22;10909;53.590;10.054;2022-09-29T08:57:42;14.10;76.70
21495;DHT22;10909;53.590;10.054;2022-09-29T09:00:13;14.10;77.60
21495;DHT22;10909;53.590;10.054;2022-09-29T09:05:28;14.30;77.00
21495;DHT22;10909;53.590;10.054;2022-09-29T09:19:12;14.80;76.40
21495;DHT22;10909;53.590;10.054;2022-09-29T09:21:54;14.90;76.00
21495;DHT22;10909;53.590;10.054;2022-09-29T09:24:28;14.90;76.30
21495;DHT22;10909;53.590;10.054;2022-09-29T09:26:59;15.00;75.90
21495;DHT22;10909;53.590;10.054;2022-09-29T09:29:36;15.00;75.70
21495;DHT22;10909;53.590;10.054;2022-09-29T09:32:27;15.10;75.50
21495;DHT22;10909;53.590;10.054;2022-09-29T09:35:05;15.10;75.50
21495;DHT22;10909;53.590;10.054;2022-09-29T09:37:34;15.20;75.60
21495;DHT22;10909;53.590;10.054;2022-09-29T09:42:42;15.30;74.80
21495;DHT22;10909;53.590;10.054;2022-09-29T09:45:13;15.30;74.90
21495;DHT22;10909;53.590;10.054;2022-09-29T09:48:02;15.30;74.80
21495;DHT22;10909;53.590;10.054;2022-09-29T09:50:38;15.30;74.20
21495;DHT22;10909;53.590;10.054;2022-09-29T09:53:18;15.30;74.60
21495;DHT22;10909;53.590;10.054;2022-09-29T09:55:54;15.30;74.60
21495;DHT22;10909;53.590;10.054;2022-09-29T10:01:03;15.30;74.50
21495;DHT22;10909;53.590;10.054;2022-09-29T10:03:31;15.40;74.40
21495;DHT22;10909;53.590;10.054;2022-09-29T10:05:57;15.40;74.50
21495;DHT22;10909;53.590;10.054;2022-09-29T10:08:26;15.50;74.60
21495;DHT22;10909;53.590;10.054;2022-09-29T10:10:53;15.60;74.50
21495;DHT22;10909;53.590;10.054;2022-09-29T10:13:19;15.60;74.40
21495;DHT22;10909;53.590;10.054;2022-09-29T10:15:54;15.70;74.10
21495;DHT22;10909;53.590;10.054;2022-09-29T10:18:39;15.70;73.90
21495;DHT22;10909;53.590;10.054;2022-09-29T10:23:54;15.80;73.40
21495;DHT22;10909;53.590;10.054;2022-09-29T10:26:23;15.80;73.80
21495;DHT22;10909;53.590;10.054;2022-09-29T10:28:55;15.80;73.60
21495;DHT22;10909;53.590;10.054;2022-09-29T10:31:29;15.90;73.60
21495;DHT22;10909;53.590;10.054;2022-09-29T10:34:25;15.90;73.60
21495;DHT22;10909;53.590;10.054;2022-09-29T10:37:00;15.90;72.50
21495;DHT22;10909;53.590;10.054;2022-09-29T10:39:44;15.90;72.90
21495;DHT22;10909;53.590;10.054;2022-09-29T10:42:39;16.00;72.30
21495;DHT22;10909;53.590;10.054;2022-09-29T10:48:15;15.90;72.00
21495;DHT22;10909;53.590;10.054;2022-09-29T10:50:55;15.80;72.00
21495;DHT22;10909;53.590;10.054;2022-09-29T10:53:39;15.90;72.50
21495;DHT22;10909;53.590;10.054;2022-09-29T10:56:17;15.90;72.20
21495;DHT22;10909;53.590;10.054;2022-09-29T10:58:50;15.80;72.30
21495;DHT22;10909;53.590;10.054;2022-09-29T11:01:18;15.80;72.50
21495;DHT22;10909;53.590;10.054;2022-09-29T11:03:52;15.80;72.40
21495;DHT22;10909;53.590;10.054;2022-09-29T11:06:27;15.80;72.40
21495;DHT22;10909;53.590;10.054;2022-09-29T11:11:33;15.80;72.40
21495;DHT22;10909;53.590;10.054;2022-09-29T11:13:59;15.80;72.50
21495;DHT22;10909;53.590;10.054;2022-09-29T11:16:31;15.80;72.60
21495;DHT22;10909;53.590;10.054;2022-09-29T11:19:10;15.80;72.40
21495;DHT22;10909;53.590;10.054;2022-09-29T11:24:39;15.80;72.20
21495;DHT22;10909;53.590;10.054;2022-09-29T11:30:11;15.70;71.80
21495;DHT22;10909;53.590;10.054;2022-09-29T11:35:44;15.70;71.80
21495;DHT22;10909;53.590;10.054;2022-09-29T11:43:58;15.70;72.40
21495;DHT22;10909;53.590;10.054;2022-09-29T11:46:49;15.70;72.80
21495;DHT22;10909;53.590;10.054;2022-09-29T11:49:33;15.70;72.50
21495;DHT22;10909;53.590;10.054;2022-09-29T12:00:13;15.80;72.60
21495;DHT22;10909;53.590;10.054;2022-09-29T12:11:23;15.80;72.50
21495;DHT22;10909;53.590;10.054;2022-09-29T12:16:33;15.70;72.80
21495;DHT22;10909;53.590;10.054;2022-09-29T12:19:13;15.70;73.10
21495;DHT22;10909;53.590;10.054;2022-09-29T12:21:45;15.80;72.90
21495;DHT22;10909;53.590;10.054;2022-09-29T12:24:42;15.80;73.00
21495;DHT22;10909;53.590;10.054;2022-09-29T12:30:54;15.80;72.50
21495;DHT22;10909;53.590;10.054;2022-09-29T12:33:47;15.80;72.00
21495;DHT22;10909;53.590;10.054;2022-09-29T12:36:39;15.80;72.40
21495;DHT22;10909;53.590;10.054;2022-09-29T12:45:02;15.70;72.50
21495;DHT22;10909;53.590;10.054;2022-09-29T12:50:27;15.60;72.70
21495;DHT22;10909;53.590;10.054;2022-09-29T12:55:48;15.60;72.90
21495;DHT22;10909;53.590;10.054;2022-09-29T12:58:23;15.60;72.70
21495;DHT22;10909;53.590;10.054;2022-09-29T13:00:58;15.50;72.60
21495;DHT22;10909;53.590;10.054;2022-09-29T13:06:17;15.50;72.90
21495;DHT22;10909;53.590;10.054;2022-09-29T13:23:29;15.50;72.90
21495;DHT22;10909;53.590;10.054;2022-09-29T13:29:12;15.60;72.70
21495;DHT22;10909;53.590;10.054;2022-09-29T13:31:39;15.60;72.60
21495;DHT22;10909;53.590;10.054;2022-09-29T13:34:06;15.50;72.70
21495;DHT22;10909;53.590;10.054;2022-09-29T13:36:42;15.60;72.80
21495;DHT22;10909;53.590;10.054;2022-09-29T13:39:23;15.50;72.50
21495;DHT22;10909;53.590;10.054;2022-09-29T13:41:52;15.50;72.10
21495;DHT22;10909;53.590;10.054;2022-09-29T13:44:26;15.50;72.20
21495;DHT22;10909;53.590;10.054;2022-09-29T13:46:53;15.40;72.20
21495;DHT22;10909;53.590;10.054;2022-09-29T13:51:51;15.30;72.10
21495;DHT22;10909;53.590;10.054;2022-09-29T13:59:43;15.10;72.50
21495;DHT22;10909;53.590;10.054;2022-09-29T14:04:54;15.00;73.30
21495;DHT22;10909;53.590;10.054;2022-09-29T14:10:13;14.90;73.40
21495;DHT22;10909;53.590;10.054;2022-09-29T14:12:41;14.90;73.60
21495;DHT22;10909;53.590;10.054;2022-09-29T14:15:12;14.90;74.00
21495;DHT22;10909;53.590;10.054;2022-09-29T14:17:45;14.90;74.20
21495;DHT22;10909;53.590;10.054;2022-09-29T14:20:18;14.90;74.20
21495;DHT22;10909;53.590;10.054;2022-09-29T14:22:49;14.90;74.40
21495;DHT22;10909;53.590;10.054;2022-09-29T14:27:46;14.90;75.40
21495;DHT22;10909;53.590;10.054;2022-09-29T14:33:13;15.10;75.30
21495;DHT22;10909;53.590;10.054;2022-09-29T14:35:43;15.10;75.20
21495;DHT22;10909;53.590;10.054;2022-09-29T15:00:19;15.40;75.40
21495;DHT22;10909;53.590;10.054;2022-09-29T15:02:53;15.40;75.40
21495;DHT22;10909;53.590;10.054;2022-09-29T15:05:31;15.40;75.50
21495;DHT22;10909;53.590;10.054;2022-09-29T15:07:59;15.50;75.40
21495;DHT22;10909;53.590;10.054;2022-09-29T15:10:30;15.50;75.40
21495;DHT22;10909;53.590;10.054;2022-09-29T15:13:30;15.50;75.40
21495;DHT22;10909;53.590;10.054;2022-09-29T15:16:04;15.50;75.40
21495;DHT22;10909;53.590;10.054;2022-09-29T15:21:56;15.50;75.70
21495;DHT22;10909;53.590;10.054;2022-09-29T15:26:48;15.50;75.50
21495;DHT22;10909;53.590;10.054;2022-09-29T15:29:16;15.50;76.30
21495;DHT22;10909;53.590;10.054;2022-09-29T15:31:44;15.50;75.50
21495;DHT22;10909;53.590;10.054;2022-09-29T15:34:19;15.50;75.50
21495;DHT22;10909;53.590;10.054;2022-09-29T15:36:51;15.50;75.50
21495;DHT22;10909;53.590;10.054;2022-09-29T15:42:00;15.60;75.60
21495;DHT22;10909;53.590;10.054;2022-09-29T15:44:28;15.60;75.50
21495;DHT22;10909;53.590;10.054;2022-09-29T15:46:58;15.60;75.50
21495;DHT22;10909;53.590;10.054;2022-09-29T15:49:28;15.50;75.50
21495;DHT22;10909;53.590;10.054;2022-09-29T15:52:03;15.50;75.30
21495;DHT22;10909;53.590;10.054;2022-09-29T15:54:31;15.60;75.30
21495;DHT22;10909;53.590;10.054;2022-09-29T15:56:58;15.50;75.30
21495;DHT22;10909;53.590;10.054;2022-09-29T15:59:45;15.50;75.20
21495;DHT22;10909;53.590;10.054;2022-09-29T16:02:23;15.50;75.10
21495;DHT22;10909;53.590;10.054;2022-09-29T16:04:56;15.40;75.00
21495;DHT22;10909;53.590;10.054;2022-09-29T16:07:37;15.40;75.10
21495;DHT22;10909;53.590;10.054;2022-09-29T16:10:13;15.40;75.20
21495;DHT22;10909;53.590;10.054;2022-09-29T16:12:48;15.40;75.30
21495;DHT22;10909;53.590;10.054;2022-09-29T16:15:27;15.30;75.40
21495;DHT22;10909;53.590;10.054;2022-09-29T16:17:54;15.30;75.50
21495;DHT22;10909;53.590;10.054;2022-09-29T16:20:26;15.30;75.60
21495;DHT22;10909;53.590;10.054;2022-09-29T16:22:53;15.30;75.80
21495;DHT22;10909;53.590;10.054;2022-09-29T16:25:28;15.30;75.80
21495;DHT22;10909;53.590;10.054;2022-09-29T16:27:59;15.20;76.00
21495;DHT22;10909;53.590;10.054;2022-09-29T16:30:30;15.20;76.00
21495;DHT22;10909;53.590;10.054;2022-09-29T16:33:19;15.20;76.10
21495;DHT22;10909;53.590;10.054;2022-09-29T16:38:35;15.20;76.20
21495;DHT22;10909;53.590;10.054;2022-09-29T16:49:51;15.20;76.30
21495;DHT22;10909;53.590;10.054;2022-09-29T16:52:31;15.20;76.40
21495;DHT22;10909;53.590;10.054;2022-09-29T16:55:26;15.20;76.50
21495;DHT22;10909;53.590;10.054;2022-09-29T16:57:58;15.20;76.60
21495;DHT22;10909;53.590;10.054;2022-09-29T17:00:25;15.10;76.50
21495;DHT22;10909;53.590;10.054;2022-09-29T17:02:51;15.10;76.50
21495;DHT22;10909;53.590;10.054;2022-09-29T17:05:17;15.10;76.60
21495;DHT22;10909;53.590;10.054;2022-09-29T17:07:43;15.10;76.70
21495;DHT22;10909;53.590;10.054;2022-09-29T17:10:18;15.10;76.70
21495;DHT22;10909;53.590;10.054;2022-09-29T17:12:44;15.10;76.90
21495;DHT22;10909;53.590;10.054;2022-09-29T17:15:16;15.10;76.90
21495;DHT22;10909;53.590;10.054;2022-09-29T17:17:47;15.10;77.00
21495;DHT22;10909;53.590;10.054;2022-09-29T17:20:16;15.10;77.00
21495;DHT22;10909;53.590;10.054;2022-09-29T17:22:43;15.10;77.10
21495;DHT22;10909;53.590;10.054;2022-09-29T17:25:13;15.10;77.10
21495;DHT22;10909;53.590;10.054;2022-09-29T17:27:39;15.10;77.20
21495;DHT22;10909;53.590;10.054;2022-09-29T17:30:26;15.10;77.20
21495;DHT22;10909;53.590;10.054;2022-09-29T17:32:54;15.10;77.30
21495;DHT22;10909;53.590;10.054;2022-09-29T17:35:24;15.10;77.40
21495;DHT22;10909;53.590;10.054;2022-09-29T17:37:50;15.10;77.50
21495;DHT22;10909;53.590;10.054;2022-09-29T17:42:47;15.10;77.60
21495;DHT22;10909;53.590;10.054;2022-09-29T17:45:17;15.10;77.70
21495;DHT22;10909;53.590;10.054;2022-09-29T17:47:45;15.10;77.80
21495;DHT22;10909;53.590;10.054;2022-09-29T17:52:45;15.10;77.90
21495;DHT22;10909;53.590;10.054;2022-09-29T17:55:10;15.00;77.80
21495;DHT22;10909;53.590;10.054;2022-09-29T17:57:37;15.00;78.00
21495;DHT22;10909;53.590;10.054;2022-09-29T18:00:20;15.00;78.10
21495;DHT22;10909;53.590;10.054;2022-09-29T18:02:48;15.00;78.30
21495;DHT22;10909;53.590;10.054;2022-09-29T18:05:18;15.10;78.30
21495;DHT22;10909;53.590;10.054;2022-09-29T18:07:48;15.10;78.40
21495;DHT22;10909;53.590;10.054;2022-09-29T18:10:29;15.10;78.40
21495;DHT22;10909;53.590;10.054;2022-09-29T18:12:56;15.10;78.50
21495;DHT22;10909;53.590;10.054;2022-09-29T18:15:22;15.10;78.30
21495;DHT22;10909;53.590;10.054;2022-09-29T18:17:48;15.10;78.40
21495;DHT22;10909;53.590;10.054;2022-09-29T18:20:19;15.00;78.40
21495;DHT22;10909;53.590;10.054;2022-09-29T18:22:46;15.00;78.40
21495;DHT22;10909;53.590;10.054;2022-09-29T18:25:17;15.00;78.40
21495;DHT22;10909;53.590;10.054;2022-09-29T18:27:47;15.00;78.50
21495;DHT22;10909;53.590;10.054;2022-09-29T18:30:18;15.00;78.50
21495;DHT22;10909;53.590;10.054;2022-09-29T18:32:49;15.10;78.70
21495;DHT22;10909;53.590;10.054;2022-09-29T18:35:18;15.10;78.60
21495;DHT22;10909;53.590;10.054;2022-09-29T18:37:44;15.00;78.50
21495;DHT22;10909;53.590;10.054;2022-09-29T18:40:10;15.00;78.50
21495;DHT22;10909;53.590;10.054;2022-09-29T18:42:47;15.00;78.60
21495;DHT22;10909;53.590;10.054;2022-09-29T18:45:18;15.00;78.60
21495;DHT22;10909;53.590;10.054;2022-09-29T18:48:05;15.00;78.90
21495;DHT22;10909;53.590;10.054;2022-09-29T18:50:32;15.00;78.60
21495;DHT22;10909;53.590;10.054;2022-09-29T18:52:58;15.00;78.60
21495;DHT22;10909;53.590;10.054;2022-09-29T18:55:27;15.00;78.60
21495;DHT22;10909;53.590;10.054;2022-09-29T18:57:55;15.00;78.80
21495;DHT22;10909;53.590;10.054;2022-09-29T19:00:23;15.00;78.80
21495;DHT22;10909;53.590;10.054;2022-09-29T19:02:49;15.00;78.90